createdAt,value
2023-03-20T00:02:05.729Z,18.375296
2023-03-20T00:07:07.188Z,18.505686
2023-03-20T00:12:08.762Z,18.932992
2023-03-20T00:17:10.292Z,18.419614
2023-03-20T00:22:11.736Z,18.65354
2023-03-20T00:27:13.254Z,18.163
2023-03-20T00:32:14.755Z,17.990612
2023-03-20T00:37:16.219Z,18.369814
2023-03-20T00:42:17.691Z,17.74062
2023-03-20T00:47:19.388Z,17.452674
2023-03-20T00:52:20.875Z,17.656136
2023-03-20T00:57:22.388Z,18.393466
2023-03-20T01:02:24.117Z,18.060428
2023-03-20T01:07:25.636Z,17.874796
2023-03-20T01:12:27.354Z,17.285402
2023-03-20T01:17:29.121Z,17.777258
2023-03-20T01:22:30.673Z,17.92864
2023-03-20T01:27:32.288Z,17.805686
2023-03-20T01:32:34.004Z,18.197426
2023-03-20T01:37:35.529Z,18.465588
2023-03-20T01:42:36.984Z,18.62731
2023-03-20T01:47:38.805Z,18.097242
2023-03-20T01:52:40.400Z,17.508282
2023-03-20T01:57:41.923Z,17.690752
2023-03-20T02:02:43.454Z,17.891826
2023-03-20T02:07:44.973Z,18.092466
2023-03-20T02:12:46.452Z,17.081058
2023-03-20T02:17:48.180Z,17.345868
2023-03-20T02:22:49.674Z,17.443854
2023-03-20T02:27:51.394Z,17.808848
2023-03-20T02:32:53.011Z,17.733198
2023-03-20T02:37:54.667Z,17.078412
2023-03-20T02:42:56.234Z,17.223172
2023-03-20T02:47:57.816Z,17.230676
2023-03-20T02:52:59.316Z,17.47235
2023-03-20T02:58:00.901Z,17.25388
2023-03-20T03:03:02.551Z,17.079104
2023-03-20T03:08:04.221Z,17.724106
2023-03-20T03:13:05.748Z,17.475186
2023-03-20T03:18:07.313Z,17.320086
2023-03-20T03:23:08.839Z,17.033836
2023-03-20T03:28:10.321Z,16.780316
2023-03-20T03:33:12.028Z,17.181066
2023-03-20T03:38:13.637Z,17.122188
2023-03-20T03:43:15.218Z,17.148404
2023-03-20T03:48:16.917Z,17.311266
2023-03-20T03:53:18.469Z,17.102946
2023-03-20T03:58:19.991Z,17.117072
2023-03-20T04:03:21.811Z,16.63485
2023-03-20T04:08:23.305Z,16.785608
2023-03-20T04:13:24.862Z,17.110626
2023-03-20T04:18:26.469Z,16.74456
2023-03-20T04:23:28.061Z,16.675274
2023-03-20T04:28:29.606Z,17.044244
2023-03-20T04:33:31.149Z,16.91555
2023-03-20T04:38:32.615Z,16.904952
2023-03-20T04:43:34.820Z,17.082998
2023-03-20T04:48:36.351Z,17.111074
2023-03-20T04:53:37.784Z,17.393972
2023-03-20T04:58:39.217Z,17.710604
2023-03-20T05:03:40.840Z,17.887782
2023-03-20T05:08:42.254Z,18.223914
2023-03-20T05:13:43.704Z,18.216586
2023-03-20T05:18:45.204Z,17.767284
2023-03-20T05:23:46.754Z,18.080904
2023-03-20T05:28:48.319Z,18.969738
2023-03-20T05:33:49.864Z,19.18449
2023-03-20T05:38:51.338Z,19.801268
2023-03-20T05:43:52.767Z,20.951846
2023-03-20T05:48:54.277Z,20.569374
2023-03-20T05:53:55.716Z,21.061502
2023-03-20T05:58:57.264Z,21.247514
2023-03-20T06:03:59.085Z,21.08092
2023-03-20T06:09:00.711Z,21.84254
2023-03-20T06:14:02.566Z,22.443388
2023-03-20T06:19:03.974Z,22.369244
2023-03-20T06:24:05.471Z,23.3952
2023-03-20T06:29:06.978Z,24.054872
2023-03-20T06:34:08.580Z,24.14644
2023-03-20T06:39:10.130Z,24.492682
2023-03-20T06:44:11.700Z,23.788678
2023-03-20T06:49:13.285Z,23.025768
2023-03-20T06:54:14.960Z,23.188888
2023-03-20T06:59:16.402Z,24.132518
2023-03-20T07:04:17.876Z,25.344324
2023-03-20T07:09:20.483Z,26.144294
2023-03-20T07:14:22.007Z,25.846426
2023-03-20T07:19:23.604Z,25.747314
2023-03-20T07:24:25.127Z,24.457618
2023-03-20T07:29:26.918Z,25.434168
2023-03-20T07:34:28.573Z,25.709116
2023-03-20T07:39:29.995Z,26.065318
2023-03-20T07:44:31.520Z,26.306926
2023-03-20T07:49:33.046Z,26.827334
2023-03-20T07:54:34.733Z,26.807686
2023-03-20T07:59:36.233Z,26.694244
2023-03-20T08:04:37.735Z,28.190158
2023-03-20T08:09:39.370Z,27.838326
2023-03-20T08:14:40.906Z,29.253488
2023-03-20T08:19:42.582Z,28.622704
2023-03-20T08:24:44.067Z,29.701516
2023-03-20T08:29:45.834Z,29.43049
2023-03-20T08:34:47.332Z,29.927084
2023-03-20T08:39:48.824Z,29.25437
2023-03-20T08:44:50.548Z,29.957982
2023-03-20T08:49:52.083Z,29.28748
2023-03-20T08:54:53.498Z,29.876754
2023-03-20T08:59:54.969Z,29.337796
2023-03-20T09:04:56.743Z,28.555412
2023-03-20T09:09:58.268Z,27.596908
2023-03-20T09:15:00.076Z,28.279976
2023-03-20T09:20:01.826Z,28.249308
2023-03-20T09:25:03.256Z,27.957534
2023-03-20T09:30:04.677Z,28.73639
2023-03-20T09:35:06.168Z,28.160794
2023-03-20T09:40:07.673Z,27.878314
2023-03-20T09:45:09.383Z,27.73928
2023-03-20T09:50:11.174Z,31.201448
2023-03-20T09:55:12.754Z,30.246662
2023-03-20T10:00:14.861Z,30.555222
2023-03-20T10:05:16.405Z,30.931074
2023-03-20T10:10:17.933Z,30.553214
2023-03-20T10:15:19.502Z,31.381532
2023-03-20T10:20:21.094Z,31.450398
2023-03-20T10:25:22.936Z,30.880988
2023-03-20T10:30:24.478Z,29.631794
2023-03-20T10:35:25.978Z,30.594058
2023-03-20T10:40:27.491Z,30.314224
2023-03-20T10:45:28.988Z,31.382862
2023-03-20T10:50:30.512Z,30.760476
2023-03-20T10:55:31.989Z,31.586364
2023-03-20T11:00:33.593Z,31.491446
2023-03-20T11:05:35.239Z,32.118932
2023-03-20T11:10:37.088Z,32.504068
2023-03-20T11:15:39.035Z,31.767344
2023-03-20T11:20:40.551Z,32.519076
2023-03-20T11:25:42.314Z,32.365902
2023-03-20T11:31:01.408Z,32.326388
2023-03-20T11:36:05.346Z,32.120914
2023-03-20T11:41:06.839Z,32.372064
2023-03-20T11:46:08.421Z,32.060206
2023-03-20T11:51:09.913Z,32.155776
2023-03-20T11:56:11.380Z,31.427656
2023-03-20T12:01:12.893Z,31.5643
2023-03-20T12:06:14.347Z,32.310714
2023-03-20T12:11:17.249Z,30.07802
2023-03-20T12:16:18.811Z,29.556294
2023-03-20T12:21:20.364Z,29.501554
2023-03-20T12:26:21.986Z,31.768878
2023-03-20T12:31:23.645Z,31.520568
2023-03-20T12:36:25.339Z,31.308244
2023-03-20T12:41:26.989Z,30.146874
2023-03-20T12:46:28.499Z,30.578386
2023-03-20T12:51:30.047Z,31.61151
2023-03-20T12:56:31.563Z,30.884044
2023-03-20T13:01:33.046Z,29.725128
2023-03-20T13:06:34.644Z,29.303152
2023-03-20T13:11:36.164Z,29.000564
2023-03-20T13:16:37.747Z,30.660482
2023-03-20T13:21:39.525Z,30.873228
2023-03-20T13:26:41.058Z,30.915618
2023-03-20T13:31:43.142Z,30.47664
2023-03-20T13:36:49.402Z,30.252172
2023-03-20T13:41:50.861Z,29.851596
2023-03-20T13:46:52.475Z,29.718288
2023-03-20T13:51:54.043Z,30.348638
2023-03-20T13:56:55.607Z,29.7205
2023-03-20T14:01:57.137Z,29.391884
2023-03-20T14:06:58.668Z,29.454332
2023-03-20T14:12:00.173Z,29.442852
2023-03-20T14:17:01.659Z,29.92486
2023-03-20T14:22:03.161Z,29.886458
2023-03-20T14:27:04.606Z,29.554082
2023-03-20T14:32:06.179Z,29.486342
2023-03-20T14:37:07.655Z,29.461836
2023-03-20T14:42:09.290Z,29.33671
2023-03-20T14:47:10.823Z,29.421426
2023-03-20T14:52:12.590Z,28.94406
2023-03-20T14:57:14.137Z,28.707052
2023-03-20T15:02:15.634Z,28.714312
2023-03-20T15:07:17.207Z,29.279528
2023-03-20T15:12:18.678Z,29.285268
2023-03-20T15:17:20.191Z,29.31219
2023-03-20T15:22:21.687Z,28.482788
2023-03-20T15:27:23.201Z,28.224354
2023-03-20T15:32:24.759Z,27.863484
2023-03-20T15:37:26.295Z,27.765498
2023-03-20T15:42:27.907Z,27.740774
2023-03-20T15:47:29.376Z,27.91095
2023-03-20T15:52:30.902Z,27.481906
2023-03-20T15:57:35.234Z,27.168516
2023-03-20T16:02:37.091Z,26.132544
2023-03-20T16:07:38.577Z,24.80382
2023-03-20T16:12:40.045Z,24.453358
2023-03-20T16:17:41.524Z,24.660606
2023-03-20T16:22:42.990Z,24.51932
2023-03-20T16:27:44.514Z,24.816182
2023-03-20T16:32:46.001Z,23.263914
2023-03-20T16:37:47.467Z,23.199418
2023-03-20T16:42:49.019Z,23.072746
2023-03-20T16:47:50.695Z,22.687858
2023-03-20T16:52:52.277Z,22.871034
2023-03-20T16:57:53.737Z,23.500446
2023-03-20T17:02:55.222Z,23.24797
2023-03-20T17:07:56.747Z,23.319672
2023-03-20T17:12:58.500Z,23.060384
2023-03-20T17:18:00.004Z,22.72033
2023-03-20T17:23:03.843Z,22.974312
2023-03-20T17:28:06.541Z,23.337828
2023-03-20T17:33:08.103Z,22.388608
2023-03-20T17:38:09.587Z,22.631368
2023-03-20T17:43:11.059Z,22.770646
2023-03-20T17:48:12.594Z,22.228378
2023-03-20T17:53:14.052Z,22.848332
2023-03-20T17:58:15.520Z,22.16513
2023-03-20T18:03:16.999Z,22.475616
2023-03-20T18:08:18.447Z,21.847534
2023-03-20T18:13:19.986Z,21.908054
2023-03-20T18:18:23.723Z,21.386046
2023-03-20T18:23:25.531Z,21.71865
2023-03-20T18:28:27.038Z,21.678484
2023-03-20T18:33:28.449Z,21.741162
2023-03-20T18:38:29.884Z,21.66524
2023-03-20T18:43:31.408Z,21.077826
2023-03-20T18:48:32.930Z,21.05659
2023-03-20T18:53:34.416Z,21.139568
2023-03-20T18:58:36.030Z,21.28042
2023-03-20T19:03:37.617Z,19.977496
2023-03-20T19:08:39.242Z,20.438156
2023-03-20T19:13:40.717Z,19.083424
2023-03-20T19:18:42.408Z,18.561104
2023-03-20T19:23:43.883Z,18.404864
2023-03-20T19:28:45.642Z,17.934814
2023-03-20T19:33:47.141Z,18.860164
2023-03-20T19:38:48.676Z,19.195712
2023-03-20T19:43:53.603Z,18.999564
2023-03-20T19:48:57.784Z,19.56627
2023-03-20T19:53:59.460Z,19.82131
2023-03-20T19:59:00.949Z,19.380828
2023-03-20T20:04:02.507Z,19.506876
2023-03-20T20:09:04.053Z,19.006186
2023-03-20T20:14:08.698Z,19.90517
2023-03-20T20:19:10.913Z,18.724088
2023-03-20T20:24:12.442Z,19.10196
2023-03-20T20:29:13.908Z,18.016734
2023-03-20T20:35:21.967Z,18.39736
2023-03-20T20:40:36.337Z,18.25568
2023-03-20T20:45:38.111Z,18.301776
2023-03-20T20:50:39.685Z,17.875936
2023-03-20T20:55:41.701Z,18.530396
2023-03-20T21:00:51.178Z,17.954938
2023-03-20T21:05:53.311Z,17.793406
2023-03-20T21:10:54.974Z,18.195472
2023-03-20T21:15:56.439Z,17.19853
2023-03-20T21:20:57.981Z,17.999338
2023-03-20T21:25:59.463Z,18.197942
2023-03-20T21:31:25.873Z,17.452932
2023-03-20T21:36:29.122Z,17.115566
2023-03-20T21:41:31.359Z,18.006584
2023-03-20T21:47:20.068Z,17.24373
2023-03-20T21:53:24.709Z,18.232992
2023-03-20T21:59:24.078Z,18.48696
2023-03-20T22:05:34.843Z,17.664088
2023-03-20T22:11:38.563Z,16.994104
2023-03-20T22:17:45.679Z,16.978662
2023-03-20T22:23:29.297Z,17.325486
2023-03-20T22:29:44.082Z,16.79991
2023-03-20T22:35:47.147Z,17.23472
2023-03-20T22:46:45.705Z,17.427
2023-03-20T22:52:07.814Z,17.551718
2023-03-20T22:57:16.649Z,16.909728
2023-03-20T23:02:18.137Z,17.871702
2023-03-20T23:07:19.652Z,17.176302
2023-03-20T23:12:21.212Z,17.756428
2023-03-20T23:17:23.732Z,17.171268
2023-03-20T23:22:25.219Z,17.60928
2023-03-20T23:27:26.628Z,17.751652
2023-03-20T23:32:28.142Z,17.413322
2023-03-20T23:37:29.778Z,18.16988
2023-03-20T23:42:31.413Z,17.287356
2023-03-20T23:47:44.041Z,17.001974
2023-03-20T23:52:55.900Z,17.09342
2023-03-20T23:58:02.677Z,17.354172
